Terminal Aerodrome Forecast
Issued by NWS Denver/Boulder, CO

Home | Current Version | Previous Version | Text Only | Print | Product List | Glossary On
Versions: 1 2 3 4 5 6 7 8 9 10 11 12 13 14 15 16 17 18 19 20 21 22 23 24 25 26 27 28 29 30 31 32 33 34 35 36 37 38 39 40 41 42 43 44 45 46 47 48 49 50
775
FTUS45 KBOU 291126
TAFDEN
TAF
KDEN 291126Z 2912/3018 25007KT P6SM VCSH SCT080 BKN120
      TEMPO 2912/2916 -SHRA BKN080
     FM291700 04007KT P6SM VCSH SCT050 BKN120
     FM292000 10010KT P6SM VCTS SCT060CB BKN090
      TEMPO 2922/3002 VRB15G25KT 5SM SHRA BKN060
     FM300200 15010KT P6SM VCSH SCT030 BKN060
      TEMPO 3002/3005 5SM SHRA BR BKN030
     FM300600 19010KT P6SM SCT030 BKN080
     FM301400 24007KT P6SM SCT050 BKN120=

USA.gov is the U.S. government's official web portal to all federal, state and local government web resources and services.